createdAt,value
2022-07-30T00:00:37.649Z,71.50
2022-07-30T00:03:06.215Z,71.47
2022-07-30T00:05:34.659Z,71.74
2022-07-30T00:08:03.088Z,71.77
2022-07-30T00:10:31.559Z,72.19
2022-07-30T00:13:02.350Z,72.08
2022-07-30T00:15:34.025Z,71.82
2022-07-30T00:18:04.005Z,71.82
2022-07-30T00:20:33.206Z,72.06
2022-07-30T00:23:07.401Z,71.83
2022-07-30T00:25:38.546Z,71.90
2022-07-30T00:28:07.102Z,71.80
2022-07-30T00:30:35.635Z,72.39
2022-07-30T00:33:05.819Z,72.76
2022-07-30T00:35:36.949Z,72.99
2022-07-30T00:38:05.497Z,73.25
2022-07-30T00:40:34.204Z,73.40
2022-07-30T00:43:02.661Z,73.68
2022-07-30T00:45:31.099Z,74.14
2022-07-30T00:48:01.463Z,74.33
2022-07-30T00:50:31.227Z,74.13
2022-07-30T00:53:00.499Z,74.10
2022-07-30T00:55:28.920Z,74.26
2022-07-30T00:57:57.292Z,74.38
2022-07-30T01:00:26.137Z,74.74
2022-07-30T01:02:54.766Z,75.05
2022-07-30T01:05:23.247Z,74.89
2022-07-30T01:07:52.919Z,75.09
2022-07-30T01:10:21.437Z,75.35
2022-07-30T01:12:52.687Z,75.77
2022-07-30T01:15:21.436Z,75.99
2022-07-30T01:17:53.150Z,76.19
2022-07-30T01:20:28.281Z,76.38
2022-07-30T01:23:08.385Z,76.54
2022-07-30T01:26:00.365Z,76.69
2022-07-30T01:28:34.393Z,76.57
2022-07-30T01:31:04.811Z,76.29
2022-07-30T01:33:36.616Z,76.56
2022-07-30T01:36:07.602Z,76.71
2022-07-30T01:38:37.843Z,76.67
2022-07-30T01:41:09.380Z,76.46
2022-07-30T01:43:38.915Z,76.54
2022-07-30T01:46:08.554Z,76.25
2022-07-30T01:48:44.908Z,75.93
2022-07-30T01:51:15.030Z,75.91
2022-07-30T01:53:49.366Z,76.02
2022-07-30T01:56:25.252Z,76.29
2022-07-30T01:58:57.139Z,76.57
2022-07-30T02:01:27.804Z,76.65
2022-07-30T02:04:05.641Z,76.84
2022-07-30T02:06:40.430Z,76.75
2022-07-30T02:09:12.664Z,76.86
2022-07-30T02:12:03.690Z,77.13
2022-07-30T02:14:41.023Z,77.09
2022-07-30T02:17:18.997Z,77.58
2022-07-30T02:19:54.556Z,77.64
2022-07-30T02:22:26.701Z,78.20
2022-07-30T02:24:56.998Z,79.15
2022-07-30T02:27:32.411Z,78.50
2022-07-30T02:30:04.599Z,78.67
2022-07-30T02:32:39.568Z,77.88
2022-07-30T02:35:14.788Z,77.47
2022-07-30T02:37:44.726Z,77.45
2022-07-30T02:40:18.056Z,75.42
2022-07-30T02:42:51.689Z,74.54
2022-07-30T02:45:25.941Z,75.34
2022-07-30T02:48:00.251Z,75.57
2022-07-30T02:50:30.026Z,75.48
2022-07-30T02:53:01.058Z,76.35
2022-07-30T02:55:35.506Z,76.88
2022-07-30T02:58:08.115Z,77.33
2022-07-30T03:00:38.069Z,77.24
2022-07-30T03:03:08.559Z,77.53
2022-07-30T03:05:41.195Z,77.42
2022-07-30T03:08:13.649Z,76.85
2022-07-30T03:10:50.169Z,76.98
2022-07-30T03:13:21.923Z,77.53
2022-07-30T03:15:53.325Z,77.40
2022-07-30T03:18:23.431Z,76.77
2022-07-30T03:20:56.373Z,77.43
2022-07-30T03:23:26.817Z,77.08
2022-07-30T03:26:01.839Z,77.26
2022-07-30T03:28:34.969Z,77.21
2022-07-30T03:31:04.753Z,77.41
2022-07-30T03:33:38.678Z,77.93
2022-07-30T03:36:09.929Z,78.46
2022-07-30T03:38:38.979Z,78.94
2022-07-30T03:41:09.218Z,78.83
2022-07-30T03:43:40.971Z,78.50
2022-07-30T03:46:12.812Z,78.08
2022-07-30T03:48:45.987Z,78.35
2022-07-30T03:51:14.758Z,78.17
2022-07-30T03:53:44.725Z,79.20
2022-07-30T03:56:31.799Z,79.18
2022-07-30T03:59:09.150Z,79.58
2022-07-30T04:01:41.137Z,79.32
2022-07-30T04:04:17.787Z,79.04
2022-07-30T04:06:46.233Z,79.53
2022-07-30T04:09:16.333Z,79.84
2022-07-30T04:11:45.313Z,79.82
2022-07-30T04:14:19.474Z,79.84
2022-07-30T04:16:58.390Z,79.24
2022-07-30T04:19:33.110Z,79.67
2022-07-30T04:22:03.370Z,80.03
2022-07-30T04:24:33.571Z,80.29
2022-07-30T04:27:03.939Z,80.58
2022-07-30T04:29:34.291Z,80.73
2022-07-30T04:32:06.186Z,80.26
2022-07-30T04:35:02.801Z,79.02
2022-07-30T04:38:04.272Z,78.95
2022-07-30T04:40:33.671Z,79.28
2022-07-30T04:43:02.156Z,79.52
2022-07-30T04:45:32.055Z,79.90
2022-07-30T04:48:02.497Z,79.70
2022-07-30T04:50:37.856Z,78.96
2022-07-30T04:53:10.003Z,79.04
2022-07-30T04:55:46.612Z,78.96
2022-07-30T04:58:16.755Z,78.75
2022-07-30T05:00:47.452Z,78.51
2022-07-30T05:03:19.200Z,78.49
2022-07-30T05:05:57.102Z,78.51
2022-07-30T05:08:28.199Z,78.65
2022-07-30T05:10:58.540Z,78.39
2022-07-30T05:13:34.284Z,77.98
2022-07-30T05:16:08.884Z,77.61
2022-07-30T05:18:37.321Z,77.65
2022-07-30T05:21:06.311Z,77.99
2022-07-30T05:23:42.111Z,77.80
2022-07-30T05:26:51.439Z,77.74
2022-07-30T05:29:22.045Z,77.25
2022-07-30T05:32:05.910Z,76.72
2022-07-30T05:34:37.224Z,76.69
2022-07-30T05:37:06.241Z,76.09
2022-07-30T05:40:02.956Z,76.23
2022-07-30T05:43:02.176Z,75.84
2022-07-30T05:45:31.070Z,76.21
2022-07-30T05:48:00.921Z,76.72
2022-07-30T05:50:29.592Z,77.20
2022-07-30T05:52:58.611Z,76.67
2022-07-30T05:55:55.736Z,75.72
2022-07-30T05:58:42.748Z,75.41
2022-07-30T06:01:17.448Z,74.72
2022-07-30T06:03:47.527Z,74.51
2022-07-30T06:06:34.927Z,74.34
2022-07-30T06:09:03.522Z,74.50
2022-07-30T06:11:35.055Z,73.73
2022-07-30T06:14:05.671Z,72.80
2022-07-30T06:16:33.988Z,69.19
2022-07-30T06:19:03.725Z,68.06
2022-07-30T06:22:01.813Z,67.61
2022-07-30T06:24:33.656Z,66.99
2022-07-30T06:27:10.911Z,66.43
2022-07-30T06:29:40.784Z,67.04
2022-07-30T06:32:10.501Z,67.00
2022-07-30T06:34:40.539Z,66.30
2022-07-30T06:37:09.171Z,65.83
2022-07-30T06:39:56.059Z,64.80
2022-07-30T06:42:48.174Z,63.76
2022-07-30T06:45:42.830Z,63.04
2022-07-30T06:48:34.119Z,61.68
2022-07-30T06:51:07.472Z,61.71
2022-07-30T06:53:42.683Z,60.45
2022-07-30T06:56:14.684Z,60.20
2022-07-30T06:58:49.267Z,60.08
2022-07-30T07:01:36.796Z,58.83
2022-07-30T07:04:06.131Z,58.90
2022-07-30T07:06:37.004Z,58.40
2022-07-30T07:09:06.019Z,59.01
2022-07-30T07:11:42.060Z,59.91
2022-07-30T07:14:13.706Z,59.98
2022-07-30T07:16:42.232Z,59.88
2022-07-30T07:19:59.469Z,59.41
2022-07-30T07:22:23.562Z,58.84
2022-07-30T07:24:51.977Z,58.22
2022-07-30T07:27:23.950Z,56.58
2022-07-30T07:30:05.092Z,56.35
2022-07-30T07:32:36.414Z,57.55
2022-07-30T07:35:06.622Z,56.51
2022-07-30T07:37:38.709Z,56.63
2022-07-30T07:40:10.015Z,55.43
2022-07-30T07:42:42.800Z,56.17
2022-07-30T07:45:12.590Z,56.25
2022-07-30T07:47:52.077Z,55.93
2022-07-30T07:50:45.028Z,54.90
2022-07-30T07:53:22.266Z,54.19
2022-07-30T07:55:50.950Z,55.17
2022-07-30T07:58:25.391Z,54.62
2022-07-30T08:00:56.064Z,53.71
2022-07-30T08:03:34.124Z,52.21
2022-07-30T08:06:14.680Z,52.19
2022-07-30T08:09:10.884Z,50.28
2022-07-30T08:12:02.629Z,50.55
2022-07-30T08:14:56.120Z,50.38
2022-07-30T08:17:44.890Z,50.48
2022-07-30T08:20:33.745Z,49.68
2022-07-30T08:23:02.715Z,49.03
2022-07-30T08:25:32.513Z,49.81
2022-07-30T08:28:03.197Z,49.99
2022-07-30T08:30:32.189Z,49.67
2022-07-30T08:33:00.764Z,48.85
2022-07-30T08:35:29.298Z,49.60
2022-07-30T08:37:57.692Z,49.55
2022-07-30T08:40:28.552Z,49.67
2022-07-30T08:43:08.796Z,49.18
2022-07-30T08:45:39.144Z,48.26
2022-07-30T08:48:23.444Z,48.70
2022-07-30T08:50:52.468Z,49.05
2022-07-30T08:53:36.529Z,48.81
2022-07-30T08:56:07.864Z,48.36
2022-07-30T08:58:39.198Z,48.56
2022-07-30T09:01:08.289Z,48.17
2022-07-30T09:03:44.146Z,47.57
2022-07-30T09:06:13.506Z,47.17
2022-07-30T09:08:43.431Z,47.53
2022-07-30T09:11:14.525Z,47.45
2022-07-30T09:13:45.557Z,47.57
2022-07-30T09:16:23.469Z,48.51
2022-07-30T09:18:53.983Z,46.86
2022-07-30T09:21:25.274Z,47.85
2022-07-30T09:24:04.410Z,48.15
2022-07-30T09:27:00.325Z,46.68
2022-07-30T09:29:58.689Z,47.37
2022-07-30T09:32:50.563Z,45.64
2022-07-30T09:35:45.764Z,47.52
2022-07-30T09:38:46.218Z,45.62
2022-07-30T09:41:39.531Z,46.63
2022-07-30T09:44:24.572Z,47.01
2022-07-30T09:46:59.687Z,45.88
2022-07-30T09:49:34.471Z,46.16
2022-07-30T09:52:03.131Z,45.68
2022-07-30T09:54:51.081Z,45.64
2022-07-30T09:57:27.641Z,45.69
2022-07-30T10:00:19.769Z,44.53
2022-07-30T10:03:21.536Z,44.17
2022-07-30T10:06:20.575Z,44.28
2022-07-30T10:08:52.117Z,43.17
2022-07-30T10:11:24.489Z,44.11
2022-07-30T10:14:00.299Z,44.11
2022-07-30T10:16:30.794Z,44.16
2022-07-30T10:19:02.007Z,44.62
2022-07-30T10:21:51.229Z,45.22
2022-07-30T10:24:39.167Z,44.98
2022-07-30T10:27:26.601Z,44.67
2022-07-30T10:30:21.746Z,45.38
2022-07-30T10:33:00.095Z,45.55
2022-07-30T10:35:38.040Z,45.52
2022-07-30T10:38:13.778Z,45.71
2022-07-30T10:40:49.941Z,45.42
2022-07-30T10:43:56.255Z,45.25
2022-07-30T10:46:42.347Z,44.63
2022-07-30T10:49:19.052Z,45.34
2022-07-30T10:51:51.638Z,45.68
2022-07-30T10:54:41.637Z,45.34
2022-07-30T10:57:14.743Z,45.46
2022-07-30T11:00:15.426Z,45.57
2022-07-30T11:03:18.675Z,45.74
2022-07-30T11:05:50.643Z,45.29
2022-07-30T11:08:42.627Z,45.82
2022-07-30T11:12:01.334Z,46.37
2022-07-30T11:15:06.583Z,46.89
2022-07-30T11:18:12.945Z,46.39
2022-07-30T11:20:48.610Z,46.90
2022-07-30T11:23:45.840Z,46.64
2022-07-30T11:26:56.618Z,47.42
2022-07-30T11:29:50.615Z,47.48
2022-07-30T11:32:33.218Z,47.89
2022-07-30T11:35:22.899Z,47.79
2022-07-30T11:38:02.267Z,47.70
2022-07-30T11:40:34.715Z,46.91
2022-07-30T11:43:25.626Z,47.10
2022-07-30T11:46:10.553Z,46.07
2022-07-30T11:48:41.905Z,45.65
2022-07-30T11:51:11.214Z,45.46
2022-07-30T11:53:39.707Z,44.82
2022-07-30T11:56:10.441Z,44.60
2022-07-30T11:58:44.774Z,45.15
2022-07-30T12:01:16.453Z,45.31
2022-07-30T12:03:47.597Z,46.00
2022-07-30T12:06:19.719Z,46.23
2022-07-30T12:08:52.851Z,46.31
2022-07-30T12:11:24.949Z,46.93
2022-07-30T12:13:59.740Z,47.28
2022-07-30T12:16:29.193Z,47.88
2022-07-30T12:19:02.850Z,46.23
2022-07-30T12:21:31.559Z,46.52
2022-07-30T12:24:02.934Z,46.44
2022-07-30T12:26:35.134Z,46.27
2022-07-30T12:29:10.052Z,45.63
2022-07-30T12:31:40.215Z,45.30
2022-07-30T12:34:21.926Z,45.17
2022-07-30T12:36:50.626Z,46.48
2022-07-30T12:39:23.933Z,46.87
2022-07-30T12:41:56.537Z,46.58
2022-07-30T12:44:44.710Z,45.91
2022-07-30T12:47:24.926Z,45.94
2022-07-30T12:49:54.351Z,45.78
2022-07-30T12:52:29.360Z,44.23
2022-07-30T12:55:06.412Z,44.38
2022-07-30T12:57:57.460Z,44.75
2022-07-30T13:00:28.266Z,44.80
2022-07-30T13:02:57.655Z,44.74
2022-07-30T13:05:49.743Z,43.96
2022-07-30T13:08:19.069Z,44.52
2022-07-30T13:10:59.668Z,45.47
2022-07-30T13:13:31.022Z,44.88
2022-07-30T13:16:01.717Z,45.52
2022-07-30T13:18:31.576Z,44.83
2022-07-30T13:21:00.653Z,45.19
2022-07-30T13:23:30.002Z,44.98
2022-07-30T13:25:58.963Z,45.60
2022-07-30T13:28:29.151Z,45.48
2022-07-30T13:30:58.780Z,46.01
2022-07-30T13:33:27.656Z,45.87
2022-07-30T13:35:56.145Z,45.21
2022-07-30T13:38:24.609Z,45.17
2022-07-30T13:40:56.934Z,46.02
2022-07-30T13:43:29.030Z,46.21
2022-07-30T13:46:00.425Z,45.98
2022-07-30T13:48:28.770Z,46.49
2022-07-30T13:50:57.388Z,46.58
2022-07-30T13:53:25.780Z,46.45
2022-07-30T13:55:54.342Z,46.38
2022-07-30T13:58:22.654Z,47.19
2022-07-30T14:00:52.739Z,46.97
2022-07-30T14:03:21.283Z,46.73
2022-07-30T14:05:49.750Z,47.02
2022-07-30T14:08:18.160Z,46.29
2022-07-30T14:10:46.520Z,46.17
2022-07-30T14:13:20.982Z,45.54
2022-07-30T14:15:52.761Z,45.61
2022-07-30T14:18:21.386Z,45.73
2022-07-30T14:20:52.650Z,45.99
2022-07-30T14:23:21.626Z,46.30
2022-07-30T14:25:50.166Z,46.56
2022-07-30T14:28:18.734Z,46.93
2022-07-30T14:30:47.135Z,46.77
2022-07-30T14:33:18.366Z,47.24
2022-07-30T14:35:46.721Z,47.08
2022-07-30T14:38:18.703Z,47.05
2022-07-30T14:40:47.020Z,46.85
2022-07-30T14:43:17.060Z,46.94
2022-07-30T14:45:45.685Z,46.62
2022-07-30T14:48:14.070Z,47.02
2022-07-30T14:51:03.689Z,47.21
2022-07-30T14:53:32.508Z,47.80
2022-07-30T14:56:01.355Z,47.21
2022-07-30T14:58:30.041Z,48.06
2022-07-30T15:01:01.148Z,47.95
2022-07-30T15:03:44.668Z,48.47
2022-07-30T15:06:15.380Z,47.96
2022-07-30T15:08:46.018Z,47.76
2022-07-30T15:11:14.573Z,48.19
2022-07-30T15:13:49.937Z,48.11
2022-07-30T15:16:19.807Z,49.17
2022-07-30T15:18:48.346Z,49.11
2022-07-30T15:21:18.338Z,48.39
2022-07-30T15:23:46.794Z,48.84
2022-07-30T15:26:15.251Z,48.43
2022-07-30T15:28:43.629Z,48.83
2022-07-30T15:31:12.020Z,48.81
2022-07-30T15:33:43.052Z,48.80
2022-07-30T15:36:11.884Z,49.16
2022-07-30T15:38:41.938Z,49.55
2022-07-30T15:41:14.077Z,49.47
2022-07-30T15:43:42.997Z,49.49
2022-07-30T15:46:11.378Z,49.20
2022-07-30T15:48:39.769Z,49.45
2022-07-30T15:51:08.424Z,49.35
2022-07-30T15:53:37.166Z,50.35
2022-07-30T15:56:07.290Z,49.98
2022-07-30T15:58:43.256Z,49.84
2022-07-30T16:01:12.816Z,50.39
2022-07-30T16:03:41.278Z,50.29
2022-07-30T16:06:09.701Z,50.41
2022-07-30T16:08:38.089Z,50.00
2022-07-30T16:11:07.817Z,49.45
2022-07-30T16:13:39.605Z,49.34
2022-07-30T16:16:07.938Z,49.35
2022-07-30T16:18:36.315Z,49.59
2022-07-30T16:21:04.874Z,48.82
2022-07-30T16:23:36.389Z,48.95
2022-07-30T16:26:07.100Z,49.28
2022-07-30T16:28:35.684Z,49.25
2022-07-30T16:31:04.077Z,48.64
2022-07-30T16:33:32.527Z,48.84
2022-07-30T16:36:00.884Z,48.94
2022-07-30T16:38:29.334Z,48.45
2022-07-30T16:40:57.750Z,48.47
2022-07-30T16:43:27.456Z,49.00
2022-07-30T16:45:55.770Z,48.46
2022-07-30T16:48:24.122Z,49.42
2022-07-30T16:50:52.441Z,50.08
2022-07-30T16:53:20.870Z,50.94
2022-07-30T16:55:49.669Z,51.75
2022-07-30T16:58:18.115Z,51.96
2022-07-30T17:00:51.264Z,52.36
2022-07-30T17:03:20.061Z,52.93
2022-07-30T17:05:49.569Z,54.18
2022-07-30T17:08:18.155Z,52.74
2022-07-30T17:10:47.827Z,52.49
2022-07-30T17:13:16.681Z,52.31
2022-07-30T17:15:46.703Z,51.93
2022-07-30T17:18:16.997Z,51.49
2022-07-30T17:20:45.820Z,52.79
2022-07-30T17:23:14.219Z,53.46
2022-07-30T17:25:42.641Z,54.57
2022-07-30T17:28:11.026Z,54.47
2022-07-30T17:30:39.502Z,54.45
2022-07-30T17:33:08.559Z,54.51
2022-07-30T17:35:38.791Z,54.43
2022-07-30T17:38:07.436Z,55.18
2022-07-30T17:40:35.934Z,55.76
2022-07-30T17:43:05.566Z,56.08
2022-07-30T17:45:36.823Z,55.74
2022-07-30T17:48:06.877Z,56.08
2022-07-30T17:50:37.139Z,56.23
2022-07-30T17:53:06.801Z,56.35
2022-07-30T17:55:35.554Z,56.54
2022-07-30T17:58:04.588Z,57.18
2022-07-30T18:00:34.906Z,56.73
2022-07-30T18:03:06.351Z,55.61
2022-07-30T18:05:37.365Z,56.98
2022-07-30T18:08:06.203Z,55.61
2022-07-30T18:10:34.577Z,56.32
2022-07-30T18:13:26.012Z,55.52
2022-07-30T18:15:52.679Z,57.20
2022-07-30T18:18:22.546Z,57.20
2022-07-30T18:20:52.475Z,55.83
2022-07-30T18:23:20.996Z,55.72
2022-07-30T18:25:54.653Z,56.46
2022-07-30T18:28:23.503Z,56.24
2022-07-30T18:30:52.248Z,56.35
2022-07-30T18:33:21.256Z,54.95
2022-07-30T18:35:51.850Z,54.73
2022-07-30T18:38:20.685Z,54.88
2022-07-30T18:40:58.465Z,55.41
2022-07-30T18:43:27.887Z,55.88
2022-07-30T18:45:57.472Z,54.85
2022-07-30T18:48:26.665Z,54.62
2022-07-30T18:50:56.341Z,54.22
2022-07-30T18:53:24.829Z,54.25
2022-07-30T18:55:53.346Z,53.59
2022-07-30T18:58:21.805Z,53.70
2022-07-30T19:00:50.749Z,54.42
2022-07-30T19:03:23.063Z,54.81
2022-07-30T19:05:51.718Z,55.19
2022-07-30T19:08:21.572Z,54.70
2022-07-30T19:10:50.222Z,54.49
2022-07-30T19:13:18.601Z,54.58
2022-07-30T19:15:47.065Z,54.88
2022-07-30T19:18:15.478Z,55.32
2022-07-30T19:20:45.336Z,55.40
2022-07-30T19:23:15.187Z,55.19
2022-07-30T19:25:45.177Z,55.04
2022-07-30T19:28:15.477Z,55.28
2022-07-30T19:30:44.030Z,54.88
2022-07-30T19:33:15.566Z,54.79
2022-07-30T19:35:44.840Z,55.00
2022-07-30T19:38:21.639Z,54.80
2022-07-30T19:40:52.918Z,54.65
2022-07-30T19:43:23.166Z,54.29
2022-07-30T19:45:52.756Z,54.25
2022-07-30T19:48:29.193Z,53.57
2022-07-30T19:51:01.647Z,53.69
2022-07-30T19:53:34.326Z,53.38
2022-07-30T19:56:08.351Z,53.45
2022-07-30T20:01:40.265Z,54.73
2022-07-30T20:04:11.105Z,54.83
2022-07-30T20:06:46.137Z,54.80
2022-07-30T20:09:17.583Z,54.92
2022-07-30T20:11:47.526Z,54.18
2022-07-30T20:14:17.998Z,53.59
2022-07-30T20:16:47.553Z,53.20
2022-07-30T20:19:16.644Z,52.80
2022-07-30T20:21:56.047Z,52.72
2022-07-30T20:24:26.488Z,52.63
2022-07-30T20:26:56.374Z,52.17
2022-07-30T20:29:25.010Z,51.93
2022-07-30T20:31:53.537Z,51.76
2022-07-30T20:34:25.727Z,51.34
2022-07-30T20:36:57.455Z,50.96
2022-07-30T20:39:26.362Z,51.02
2022-07-30T20:42:08.512Z,50.86
2022-07-30T20:44:38.127Z,50.69
2022-07-30T20:47:08.032Z,50.75
2022-07-30T20:49:37.062Z,50.29
2022-07-30T20:52:06.664Z,50.22
2022-07-30T20:54:35.292Z,50.64
2022-07-30T20:57:08.819Z,50.33
2022-07-30T20:59:44.207Z,49.74
2022-07-30T21:05:01.199Z,49.11
2022-07-30T21:07:36.523Z,49.10
2022-07-30T21:10:08.391Z,48.88
2022-07-30T21:12:44.753Z,48.42
2022-07-30T21:15:23.394Z,48.18
2022-07-30T21:17:52.938Z,47.61
2022-07-30T21:20:27.766Z,47.42
2022-07-30T21:22:57.154Z,47.03
2022-07-30T21:25:32.567Z,46.72
2022-07-30T21:28:03.622Z,46.53
2022-07-30T21:30:33.630Z,46.84
2022-07-30T21:33:01.953Z,46.90
2022-07-30T21:35:32.054Z,47.01
2022-07-30T21:38:01.097Z,47.17
2022-07-30T21:40:29.552Z,47.13
2022-07-30T21:42:57.983Z,47.49
2022-07-30T21:45:38.038Z,48.11
2022-07-30T21:48:11.412Z,48.08
2022-07-30T21:50:40.764Z,48.33
2022-07-30T21:53:11.598Z,48.58
2022-07-30T21:55:52.595Z,50.62
2022-07-30T21:58:25.867Z,54.54
2022-07-30T22:01:18.026Z,54.39
2022-07-30T22:04:02.719Z,53.86
2022-07-30T22:06:33.706Z,53.67
2022-07-30T22:09:02.707Z,55.34
2022-07-30T22:11:42.482Z,55.04
2022-07-30T22:14:11.574Z,55.92
2022-07-30T22:16:45.963Z,55.70
2022-07-30T22:19:15.325Z,54.46
2022-07-30T22:21:46.504Z,53.73
2022-07-30T22:24:26.296Z,53.05
2022-07-30T22:27:00.075Z,53.33
2022-07-30T22:29:33.731Z,53.68
2022-07-30T22:32:06.412Z,55.72
2022-07-30T22:34:36.470Z,55.87
2022-07-30T22:37:09.279Z,56.59
2022-07-30T22:39:51.726Z,56.75
2022-07-30T22:42:24.007Z,55.29
2022-07-30T22:44:54.687Z,55.08
2022-07-30T22:47:54.172Z,58.59
2022-07-30T22:50:15.032Z,56.77
2022-07-30T22:52:56.028Z,57.59
2022-07-30T22:55:31.354Z,55.46
2022-07-30T22:58:00.018Z,56.74
2022-07-30T23:00:28.732Z,56.51
2022-07-30T23:02:59.381Z,56.97
2022-07-30T23:05:30.598Z,57.02
2022-07-30T23:08:04.020Z,58.09
2022-07-30T23:10:32.666Z,58.16
2022-07-30T23:12:16.509Z,53.56
2022-07-30T23:12:26.729Z,49.39
2022-07-30T23:13:01.493Z,58.51
2022-07-30T23:15:29.973Z,58.88
2022-07-30T23:17:59.696Z,59.00
2022-07-30T23:20:28.777Z,59.29
2022-07-30T23:22:57.402Z,59.68
2022-07-30T23:25:38.479Z,60.34
2022-07-30T23:28:07.378Z,60.98
2022-07-30T23:30:35.864Z,61.61
2022-07-30T23:33:05.890Z,61.99
2022-07-30T23:35:35.082Z,62.54
2022-07-30T23:38:03.461Z,62.52
2022-07-30T23:40:31.989Z,62.84
2022-07-30T23:43:00.323Z,62.85
2022-07-30T23:45:28.676Z,62.99
2022-07-30T23:48:02.719Z,63.01
2022-07-30T23:50:35.649Z,63.24
2022-07-30T23:53:05.593Z,63.62
2022-07-30T23:55:33.984Z,64.18
2022-07-30T23:58:02.347Z,64.70
